sensor_id;sensor_type;location;lat;lon;timestamp;P1;durP1;ratioP1;P2;durP2;ratioP2
68800;SDS011;55784;50.734;7.086;2023-05-07T00:00:57;10.87;;;4.90;;
68800;SDS011;55784;50.734;7.086;2023-05-07T00:03:24;12.20;;;5.82;;
68800;SDS011;55784;50.734;7.086;2023-05-07T00:05:51;9.98;;;4.55;;
68800;SDS011;55784;50.734;7.086;2023-05-07T00:08:17;9.85;;;4.82;;
68800;SDS011;55784;50.734;7.086;2023-05-07T00:10:43;9.27;;;4.20;;
68800;SDS011;55784;50.734;7.086;2023-05-07T00:13:09;9.80;;;4.05;;
68800;SDS011;55784;50.734;7.086;2023-05-07T00:15:34;9.67;;;4.27;;
68800;SDS011;55784;50.734;7.086;2023-05-07T00:18:00;9.30;;;4.20;;
68800;SDS011;55784;50.734;7.086;2023-05-07T00:20:25;9.53;;;3.93;;
68800;SDS011;55784;50.734;7.086;2023-05-07T00:22:50;9.90;;;4.07;;
68800;SDS011;55784;50.734;7.086;2023-05-07T00:25:15;9.20;;;4.00;;
68800;SDS011;55784;50.734;7.086;2023-05-07T00:27:41;7.93;;;3.83;;
68800;SDS011;55784;50.734;7.086;2023-05-07T00:30:06;13.83;;;6.20;;
68800;SDS011;55784;50.734;7.086;2023-05-07T00:32:32;11.60;;;4.80;;
68800;SDS011;55784;50.734;7.086;2023-05-07T00:34:57;12.73;;;5.93;;
68800;SDS011;55784;50.734;7.086;2023-05-07T00:37:23;9.52;;;4.90;;
68800;SDS011;55784;50.734;7.086;2023-05-07T00:39:48;8.20;;;4.10;;
68800;SDS011;55784;50.734;7.086;2023-05-07T00:42:14;9.00;;;4.40;;
68800;SDS011;55784;50.734;7.086;2023-05-07T00:44:41;8.63;;;4.00;;
68800;SDS011;55784;50.734;7.086;2023-05-07T00:47:06;8.90;;;3.60;;
68800;SDS011;55784;50.734;7.086;2023-05-07T00:49:37;8.77;;;3.80;;
68800;SDS011;55784;50.734;7.086;2023-05-07T00:52:11;7.82;;;3.88;;
68800;SDS011;55784;50.734;7.086;2023-05-07T00:54:38;8.20;;;3.70;;
68800;SDS011;55784;50.734;7.086;2023-05-07T00:57:05;7.95;;;3.58;;
68800;SDS011;55784;50.734;7.086;2023-05-07T00:59:31;8.23;;;3.40;;
68800;SDS011;55784;50.734;7.086;2023-05-07T01:01:57;8.23;;;3.67;;
68800;SDS011;55784;50.734;7.086;2023-05-07T01:04:23;8.90;;;3.65;;
68800;SDS011;55784;50.734;7.086;2023-05-07T01:06:48;8.23;;;3.60;;
68800;SDS011;55784;50.734;7.086;2023-05-07T01:09:15;9.05;;;3.88;;
68800;SDS011;55784;50.734;7.086;2023-05-07T01:11:40;7.37;;;3.40;;
68800;SDS011;55784;50.734;7.086;2023-05-07T01:14:05;7.73;;;3.37;;
68800;SDS011;55784;50.734;7.086;2023-05-07T01:16:32;8.00;;;3.72;;
68800;SDS011;55784;50.734;7.086;2023-05-07T01:18:58;9.20;;;3.90;;
68800;SDS011;55784;50.734;7.086;2023-05-07T01:21:25;8.40;;;3.70;;
68800;SDS011;55784;50.734;7.086;2023-05-07T01:23:55;8.43;;;3.67;;
68800;SDS011;55784;50.734;7.086;2023-05-07T01:26:21;7.57;;;3.63;;
68800;SDS011;55784;50.734;7.086;2023-05-07T01:28:47;8.32;;;3.70;;
68800;SDS011;55784;50.734;7.086;2023-05-07T01:31:12;7.80;;;3.83;;
68800;SDS011;55784;50.734;7.086;2023-05-07T01:33:39;9.57;;;4.10;;
68800;SDS011;55784;50.734;7.086;2023-05-07T01:36:06;7.82;;;3.67;;
68800;SDS011;55784;50.734;7.086;2023-05-07T01:38:33;9.10;;;4.15;;
68800;SDS011;55784;50.734;7.086;2023-05-07T01:40:59;8.80;;;4.15;;
68800;SDS011;55784;50.734;7.086;2023-05-07T01:43:25;7.30;;;3.67;;
68800;SDS011;55784;50.734;7.086;2023-05-07T01:45:50;7.87;;;3.50;;
68800;SDS011;55784;50.734;7.086;2023-05-07T01:48:17;8.57;;;3.92;;
68800;SDS011;55784;50.734;7.086;2023-05-07T01:50:43;7.83;;;3.90;;
68800;SDS011;55784;50.734;7.086;2023-05-07T01:53:09;10.25;;;3.90;;
68800;SDS011;55784;50.734;7.086;2023-05-07T01:55:34;8.43;;;3.83;;
68800;SDS011;55784;50.734;7.086;2023-05-07T01:58:02;8.13;;;3.80;;
68800;SDS011;55784;50.734;7.086;2023-05-07T02:00:27;8.40;;;3.83;;
68800;SDS011;55784;50.734;7.086;2023-05-07T02:02:53;8.80;;;3.80;;
68800;SDS011;55784;50.734;7.086;2023-05-07T02:05:19;8.27;;;3.88;;
68800;SDS011;55784;50.734;7.086;2023-05-07T02:07:44;8.00;;;3.53;;
68800;SDS011;55784;50.734;7.086;2023-05-07T02:10:10;7.87;;;3.50;;
68800;SDS011;55784;50.734;7.086;2023-05-07T02:12:35;8.83;;;3.67;;
68800;SDS011;55784;50.734;7.086;2023-05-07T02:15:00;7.77;;;3.90;;
68800;SDS011;55784;50.734;7.086;2023-05-07T02:17:25;8.63;;;3.80;;
68800;SDS011;55784;50.734;7.086;2023-05-07T02:19:51;8.30;;;3.40;;
68800;SDS011;55784;50.734;7.086;2023-05-07T02:22:16;8.20;;;3.70;;
68800;SDS011;55784;50.734;7.086;2023-05-07T02:24:41;10.85;;;3.90;;
68800;SDS011;55784;50.734;7.086;2023-05-07T02:27:07;8.50;;;3.70;;
68800;SDS011;55784;50.734;7.086;2023-05-07T02:29:33;8.00;;;3.80;;
68800;SDS011;55784;50.734;7.086;2023-05-07T02:31:59;8.10;;;3.90;;
68800;SDS011;55784;50.734;7.086;2023-05-07T02:34:24;10.67;;;4.10;;
68800;SDS011;55784;50.734;7.086;2023-05-07T02:36:50;10.30;;;4.40;;
68800;SDS011;55784;50.734;7.086;2023-05-07T02:39:16;9.20;;;4.30;;
68800;SDS011;55784;50.734;7.086;2023-05-07T02:41:41;10.00;;;4.40;;
68800;SDS011;55784;50.734;7.086;2023-05-07T02:44:07;10.03;;;5.00;;
68800;SDS011;55784;50.734;7.086;2023-05-07T02:46:32;8.87;;;4.50;;
68800;SDS011;55784;50.734;7.086;2023-05-07T02:48:58;11.23;;;4.45;;
68800;SDS011;55784;50.734;7.086;2023-05-07T02:51:23;9.10;;;4.47;;
68800;SDS011;55784;50.734;7.086;2023-05-07T02:53:51;9.93;;;4.83;;
68800;SDS011;55784;50.734;7.086;2023-05-07T02:56:16;9.55;;;4.38;;
68800;SDS011;55784;50.734;7.086;2023-05-07T02:58:41;9.93;;;4.50;;
68800;SDS011;55784;50.734;7.086;2023-05-07T03:01:07;10.17;;;4.80;;
68800;SDS011;55784;50.734;7.086;2023-05-07T03:03:33;10.30;;;4.85;;
68800;SDS011;55784;50.734;7.086;2023-05-07T03:05:59;9.80;;;5.05;;
68800;SDS011;55784;50.734;7.086;2023-05-07T03:08:25;10.93;;;5.03;;
68800;SDS011;55784;50.734;7.086;2023-05-07T03:10:50;9.40;;;4.53;;
68800;SDS011;55784;50.734;7.086;2023-05-07T03:13:16;9.77;;;4.73;;
68800;SDS011;55784;50.734;7.086;2023-05-07T03:15:41;12.25;;;5.10;;
68800;SDS011;55784;50.734;7.086;2023-05-07T03:18:06;8.90;;;4.47;;
68800;SDS011;55784;50.734;7.086;2023-05-07T03:20:32;9.80;;;4.53;;
68800;SDS011;55784;50.734;7.086;2023-05-07T03:22:57;13.00;;;5.07;;
68800;SDS011;55784;50.734;7.086;2023-05-07T03:25:23;9.70;;;4.90;;
68800;SDS011;55784;50.734;7.086;2023-05-07T03:27:48;10.83;;;5.10;;
68800;SDS011;55784;50.734;7.086;2023-05-07T03:30:13;10.20;;;4.53;;
68800;SDS011;55784;50.734;7.086;2023-05-07T03:32:39;10.00;;;4.70;;
68800;SDS011;55784;50.734;7.086;2023-05-07T03:35:05;10.17;;;4.90;;
68800;SDS011;55784;50.734;7.086;2023-05-07T03:37:30;10.33;;;5.07;;
68800;SDS011;55784;50.734;7.086;2023-05-07T03:39:56;10.13;;;4.90;;
68800;SDS011;55784;50.734;7.086;2023-05-07T03:42:21;9.93;;;4.50;;
68800;SDS011;55784;50.734;7.086;2023-05-07T03:44:46;9.77;;;4.45;;
68800;SDS011;55784;50.734;7.086;2023-05-07T03:47:12;9.40;;;4.20;;
68800;SDS011;55784;50.734;7.086;2023-05-07T03:49:38;9.85;;;3.80;;
68800;SDS011;55784;50.734;7.086;2023-05-07T03:52:04;7.53;;;3.50;;
68800;SDS011;55784;50.734;7.086;2023-05-07T03:54:29;7.72;;;3.60;;
68800;SDS011;55784;50.734;7.086;2023-05-07T03:56:55;7.87;;;3.63;;
68800;SDS011;55784;50.734;7.086;2023-05-07T03:59:20;8.50;;;3.70;;
68800;SDS011;55784;50.734;7.086;2023-05-07T04:01:46;8.18;;;3.80;;
68800;SDS011;55784;50.734;7.086;2023-05-07T04:04:13;8.05;;;3.90;;
68800;SDS011;55784;50.734;7.086;2023-05-07T04:06:38;8.73;;;3.70;;
68800;SDS011;55784;50.734;7.086;2023-05-07T04:09:04;9.67;;;4.50;;
68800;SDS011;55784;50.734;7.086;2023-05-07T04:11:29;9.27;;;3.87;;
68800;SDS011;55784;50.734;7.086;2023-05-07T04:13:55;8.97;;;3.73;;
68800;SDS011;55784;50.734;7.086;2023-05-07T04:16:20;9.27;;;4.20;;
68800;SDS011;55784;50.734;7.086;2023-05-07T04:18:45;9.23;;;4.27;;
68800;SDS011;55784;50.734;7.086;2023-05-07T04:21:17;8.47;;;4.00;;
68800;SDS011;55784;50.734;7.086;2023-05-07T04:23:43;8.75;;;3.90;;
68800;SDS011;55784;50.734;7.086;2023-05-07T04:26:09;7.43;;;3.70;;
68800;SDS011;55784;50.734;7.086;2023-05-07T04:28:35;8.90;;;3.88;;
68800;SDS011;55784;50.734;7.086;2023-05-07T04:31:01;9.33;;;4.00;;
68800;SDS011;55784;50.734;7.086;2023-05-07T04:33:26;8.40;;;3.92;;
68800;SDS011;55784;50.734;7.086;2023-05-07T04:35:51;10.67;;;4.27;;
68800;SDS011;55784;50.734;7.086;2023-05-07T04:38:17;8.33;;;4.27;;
68800;SDS011;55784;50.734;7.086;2023-05-07T04:40:43;10.77;;;4.78;;
68800;SDS011;55784;50.734;7.086;2023-05-07T04:43:09;10.43;;;4.77;;
68800;SDS011;55784;50.734;7.086;2023-05-07T04:45:35;8.90;;;4.57;;
68800;SDS011;55784;50.734;7.086;2023-05-07T04:48:01;11.47;;;4.93;;
68800;SDS011;55784;50.734;7.086;2023-05-07T04:50:26;10.47;;;4.83;;
68800;SDS011;55784;50.734;7.086;2023-05-07T04:52:51;10.03;;;5.20;;
68800;SDS011;55784;50.734;7.086;2023-05-07T04:55:17;10.70;;;4.87;;
68800;SDS011;55784;50.734;7.086;2023-05-07T04:57:42;9.17;;;4.50;;
68800;SDS011;55784;50.734;7.086;2023-05-07T05:00:08;9.83;;;4.67;;
68800;SDS011;55784;50.734;7.086;2023-05-07T05:02:34;10.65;;;4.60;;
68800;SDS011;55784;50.734;7.086;2023-05-07T05:04:59;9.35;;;4.13;;
68800;SDS011;55784;50.734;7.086;2023-05-07T05:07:27;11.80;;;5.10;;
68800;SDS011;55784;50.734;7.086;2023-05-07T05:09:52;9.45;;;4.55;;
68800;SDS011;55784;50.734;7.086;2023-05-07T05:12:17;10.10;;;5.10;;
68800;SDS011;55784;50.734;7.086;2023-05-07T05:14:43;10.30;;;4.70;;
68800;SDS011;55784;50.734;7.086;2023-05-07T05:17:08;10.13;;;4.73;;
68800;SDS011;55784;50.734;7.086;2023-05-07T05:19:33;10.37;;;4.90;;
68800;SDS011;55784;50.734;7.086;2023-05-07T05:21:58;9.00;;;4.37;;
68800;SDS011;55784;50.734;7.086;2023-05-07T05:24:26;9.80;;;4.75;;
68800;SDS011;55784;50.734;7.086;2023-05-07T05:26:52;9.70;;;4.53;;
68800;SDS011;55784;50.734;7.086;2023-05-07T05:29:18;10.38;;;4.78;;
68800;SDS011;55784;50.734;7.086;2023-05-07T05:31:43;9.77;;;4.60;;
68800;SDS011;55784;50.734;7.086;2023-05-07T05:34:08;9.63;;;4.40;;
68800;SDS011;55784;50.734;7.086;2023-05-07T05:36:34;9.60;;;4.40;;
68800;SDS011;55784;50.734;7.086;2023-05-07T05:38:59;9.60;;;4.30;;
68800;SDS011;55784;50.734;7.086;2023-05-07T05:41:24;9.27;;;4.73;;
68800;SDS011;55784;50.734;7.086;2023-05-07T05:43:50;9.47;;;4.70;;
68800;SDS011;55784;50.734;7.086;2023-05-07T05:46:15;7.83;;;3.97;;
68800;SDS011;55784;50.734;7.086;2023-05-07T05:48:40;8.15;;;3.92;;
68800;SDS011;55784;50.734;7.086;2023-05-07T05:51:06;9.03;;;4.00;;
68800;SDS011;55784;50.734;7.086;2023-05-07T05:53:31;8.47;;;3.93;;
68800;SDS011;55784;50.734;7.086;2023-05-07T05:55:56;8.70;;;3.83;;
68800;SDS011;55784;50.734;7.086;2023-05-07T05:58:21;11.90;;;4.33;;
68800;SDS011;55784;50.734;7.086;2023-05-07T06:00:47;7.70;;;3.87;;
68800;SDS011;55784;50.734;7.086;2023-05-07T06:03:13;7.93;;;3.90;;
68800;SDS011;55784;50.734;7.086;2023-05-07T06:05:38;9.10;;;3.67;;
68800;SDS011;55784;50.734;7.086;2023-05-07T06:08:04;10.87;;;4.00;;
68800;SDS011;55784;50.734;7.086;2023-05-07T06:10:29;7.95;;;3.28;;
68800;SDS011;55784;50.734;7.086;2023-05-07T06:12:55;8.37;;;3.53;;
68800;SDS011;55784;50.734;7.086;2023-05-07T06:15:21;9.63;;;3.40;;
68800;SDS011;55784;50.734;7.086;2023-05-07T06:17:46;7.57;;;3.27;;
68800;SDS011;55784;50.734;7.086;2023-05-07T06:20:11;8.33;;;3.10;;
68800;SDS011;55784;50.734;7.086;2023-05-07T06:22:36;7.87;;;2.90;;
68800;SDS011;55784;50.734;7.086;2023-05-07T06:25:02;6.87;;;2.90;;
68800;SDS011;55784;50.734;7.086;2023-05-07T06:27:27;6.70;;;2.90;;
68800;SDS011;55784;50.734;7.086;2023-05-07T06:29:53;6.75;;;2.90;;
68800;SDS011;55784;50.734;7.086;2023-05-07T06:32:18;6.60;;;2.90;;
68800;SDS011;55784;50.734;7.086;2023-05-07T06:34:43;7.97;;;3.20;;
68800;SDS011;55784;50.734;7.086;2023-05-07T06:37:09;6.70;;;2.97;;
68800;SDS011;55784;50.734;7.086;2023-05-07T06:39:34;7.27;;;2.93;;
68800;SDS011;55784;50.734;7.086;2023-05-07T06:42:00;8.07;;;3.10;;
68800;SDS011;55784;50.734;7.086;2023-05-07T06:44:26;7.13;;;2.95;;
68800;SDS011;55784;50.734;7.086;2023-05-07T06:46:52;7.13;;;3.10;;
68800;SDS011;55784;50.734;7.086;2023-05-07T06:49:17;7.80;;;2.70;;
68800;SDS011;55784;50.734;7.086;2023-05-07T06:51:43;6.75;;;2.88;;
68800;SDS011;55784;50.734;7.086;2023-05-07T06:54:08;7.07;;;2.70;;
68800;SDS011;55784;50.734;7.086;2023-05-07T06:56:33;7.70;;;2.93;;
68800;SDS011;55784;50.734;7.086;2023-05-07T06:58:59;6.63;;;2.95;;
68800;SDS011;55784;50.734;7.086;2023-05-07T07:01:26;7.30;;;2.83;;
68800;SDS011;55784;50.734;7.086;2023-05-07T07:03:51;6.82;;;2.72;;
68800;SDS011;55784;50.734;7.086;2023-05-07T07:06:17;6.40;;;2.37;;
68800;SDS011;55784;50.734;7.086;2023-05-07T07:08:42;6.50;;;2.57;;
68800;SDS011;55784;50.734;7.086;2023-05-07T07:11:08;6.63;;;3.00;;
68800;SDS011;55784;50.734;7.086;2023-05-07T07:13:33;7.28;;;3.13;;
68800;SDS011;55784;50.734;7.086;2023-05-07T07:15:59;7.30;;;2.70;;
68800;SDS011;55784;50.734;7.086;2023-05-07T07:18:25;5.75;;;2.30;;
68800;SDS011;55784;50.734;7.086;2023-05-07T07:20:50;6.10;;;2.30;;
68800;SDS011;55784;50.734;7.086;2023-05-07T07:23:15;8.73;;;2.53;;
68800;SDS011;55784;50.734;7.086;2023-05-07T07:25:41;6.87;;;2.40;;
68800;SDS011;55784;50.734;7.086;2023-05-07T07:28:06;5.80;;;2.23;;
68800;SDS011;55784;50.734;7.086;2023-05-07T07:30:31;7.03;;;2.20;;
68800;SDS011;55784;50.734;7.086;2023-05-07T07:32:57;5.80;;;2.07;;
68800;SDS011;55784;50.734;7.086;2023-05-07T07:35:27;6.90;;;2.35;;
68800;SDS011;55784;50.734;7.086;2023-05-07T07:37:53;6.20;;;2.50;;
68800;SDS011;55784;50.734;7.086;2023-05-07T07:40:18;6.07;;;2.43;;
68800;SDS011;55784;50.734;7.086;2023-05-07T07:42:44;6.93;;;2.40;;
68800;SDS011;55784;50.734;7.086;2023-05-07T07:45:11;5.85;;;2.50;;
68800;SDS011;55784;50.734;7.086;2023-05-07T07:47:36;6.67;;;2.20;;
68800;SDS011;55784;50.734;7.086;2023-05-07T07:50:02;7.43;;;2.60;;
68800;SDS011;55784;50.734;7.086;2023-05-07T07:52:28;7.60;;;2.53;;
68800;SDS011;55784;50.734;7.086;2023-05-07T07:54:56;6.03;;;2.23;;
68800;SDS011;55784;50.734;7.086;2023-05-07T07:57:21;5.43;;;2.15;;
68800;SDS011;55784;50.734;7.086;2023-05-07T07:59:47;5.83;;;2.30;;
68800;SDS011;55784;50.734;7.086;2023-05-07T08:02:12;7.00;;;2.40;;
68800;SDS011;55784;50.734;7.086;2023-05-07T08:04:37;7.80;;;4.17;;
68800;SDS011;55784;50.734;7.086;2023-05-07T08:07:03;6.78;;;2.50;;
68800;SDS011;55784;50.734;7.086;2023-05-07T08:09:37;6.17;;;2.40;;
68800;SDS011;55784;50.734;7.086;2023-05-07T08:12:03;7.40;;;3.17;;
68800;SDS011;55784;50.734;7.086;2023-05-07T08:14:29;7.07;;;2.30;;
68800;SDS011;55784;50.734;7.086;2023-05-07T08:17:02;6.10;;;2.20;;
68800;SDS011;55784;50.734;7.086;2023-05-07T08:19:36;5.72;;;2.00;;
68800;SDS011;55784;50.734;7.086;2023-05-07T08:22:02;6.13;;;2.20;;
68800;SDS011;55784;50.734;7.086;2023-05-07T08:27:14;5.45;;;2.20;;
68800;SDS011;55784;50.734;7.086;2023-05-07T08:29:40;5.97;;;2.30;;
68800;SDS011;55784;50.734;7.086;2023-05-07T08:32:05;5.07;;;1.90;;
68800;SDS011;55784;50.734;7.086;2023-05-07T08:34:31;6.03;;;1.80;;
68800;SDS011;55784;50.734;7.086;2023-05-07T08:36:56;6.63;;;2.80;;
68800;SDS011;55784;50.734;7.086;2023-05-07T08:39:21;6.50;;;2.10;;
68800;SDS011;55784;50.734;7.086;2023-05-07T08:41:47;5.73;;;2.00;;
68800;SDS011;55784;50.734;7.086;2023-05-07T08:44:19;5.30;;;2.10;;
68800;SDS011;55784;50.734;7.086;2023-05-07T08:46:47;6.05;;;2.00;;
68800;SDS011;55784;50.734;7.086;2023-05-07T08:49:20;5.50;;;1.90;;
68800;SDS011;55784;50.734;7.086;2023-05-07T08:51:45;5.32;;;1.83;;
68800;SDS011;55784;50.734;7.086;2023-05-07T08:54:11;6.77;;;3.07;;
68800;SDS011;55784;50.734;7.086;2023-05-07T08:56:37;20.83;;;13.38;;
68800;SDS011;55784;50.734;7.086;2023-05-07T08:59:02;38.90;;;20.90;;
68800;SDS011;55784;50.734;7.086;2023-05-07T09:01:28;26.67;;;14.40;;
68800;SDS011;55784;50.734;7.086;2023-05-07T09:03:54;36.20;;;19.87;;
68800;SDS011;55784;50.734;7.086;2023-05-07T09:06:20;61.80;;;32.33;;
68800;SDS011;55784;50.734;7.086;2023-05-07T09:08:49;34.20;;;18.00;;
68800;SDS011;55784;50.734;7.086;2023-05-07T09:11:26;25.73;;;16.15;;
68800;SDS011;55784;50.734;7.086;2023-05-07T09:14:03;14.18;;;9.63;;
68800;SDS011;55784;50.734;7.086;2023-05-07T09:16:34;11.10;;;5.70;;
68800;SDS011;55784;50.734;7.086;2023-05-07T09:19:00;18.97;;;10.70;;
68800;SDS011;55784;50.734;7.086;2023-05-07T09:21:26;10.97;;;5.23;;
68800;SDS011;55784;50.734;7.086;2023-05-07T09:23:52;6.00;;;2.40;;
68800;SDS011;55784;50.734;7.086;2023-05-07T09:26:23;6.72;;;2.60;;
68800;SDS011;55784;50.734;7.086;2023-05-07T09:28:49;7.22;;;1.98;;
68800;SDS011;55784;50.734;7.086;2023-05-07T09:31:14;5.73;;;2.30;;
68800;SDS011;55784;50.734;7.086;2023-05-07T09:33:40;6.18;;;2.40;;
68800;SDS011;55784;50.734;7.086;2023-05-07T09:36:06;5.00;;;1.90;;
68800;SDS011;55784;50.734;7.086;2023-05-07T09:38:33;5.68;;;1.70;;
68800;SDS011;55784;50.734;7.086;2023-05-07T09:41:03;7.45;;;2.38;;
68800;SDS011;55784;50.734;7.086;2023-05-07T09:43:31;5.83;;;2.20;;
68800;SDS011;55784;50.734;7.086;2023-05-07T09:45:58;6.00;;;2.03;;
68800;SDS011;55784;50.734;7.086;2023-05-07T09:48:25;5.50;;;1.95;;
68800;SDS011;55784;50.734;7.086;2023-05-07T09:50:52;5.00;;;2.10;;
68800;SDS011;55784;50.734;7.086;2023-05-07T09:53:23;8.18;;;2.30;;
68800;SDS011;55784;50.734;7.086;2023-05-07T09:55:49;6.70;;;2.50;;
68800;SDS011;55784;50.734;7.086;2023-05-07T09:58:16;6.28;;;2.45;;
68800;SDS011;55784;50.734;7.086;2023-05-07T10:00:43;6.22;;;1.98;;
68800;SDS011;55784;50.734;7.086;2023-05-07T10:03:10;5.63;;;2.10;;
68800;SDS011;55784;50.734;7.086;2023-05-07T10:05:37;5.38;;;1.90;;
68800;SDS011;55784;50.734;7.086;2023-05-07T10:08:03;6.50;;;2.47;;
68800;SDS011;55784;50.734;7.086;2023-05-07T10:10:29;6.40;;;2.10;;
68800;SDS011;55784;50.734;7.086;2023-05-07T10:12:58;6.85;;;2.10;;
68800;SDS011;55784;50.734;7.086;2023-05-07T10:15:24;7.00;;;2.20;;
68800;SDS011;55784;50.734;7.086;2023-05-07T10:17:50;5.23;;;2.10;;
68800;SDS011;55784;50.734;7.086;2023-05-07T10:20:18;5.68;;;2.03;;
68800;SDS011;55784;50.734;7.086;2023-05-07T10:22:46;6.63;;;2.42;;
68800;SDS011;55784;50.734;7.086;2023-05-07T10:25:17;6.00;;;2.00;;
68800;SDS011;55784;50.734;7.086;2023-05-07T10:27:45;5.68;;;2.08;;
68800;SDS011;55784;50.734;7.086;2023-05-07T10:30:19;6.03;;;2.30;;
68800;SDS011;55784;50.734;7.086;2023-05-07T10:32:55;5.07;;;1.90;;
68800;SDS011;55784;50.734;7.086;2023-05-07T10:35:30;4.80;;;1.80;;
68800;SDS011;55784;50.734;7.086;2023-05-07T10:38:00;4.87;;;1.70;;
68800;SDS011;55784;50.734;7.086;2023-05-07T10:40:26;4.82;;;1.70;;
68800;SDS011;55784;50.734;7.086;2023-05-07T10:42:59;5.97;;;1.77;;
68800;SDS011;55784;50.734;7.086;2023-05-07T10:45:32;6.13;;;2.13;;
68800;SDS011;55784;50.734;7.086;2023-05-07T10:50:40;5.43;;;1.63;;
68800;SDS011;55784;50.734;7.086;2023-05-07T10:55:45;5.17;;;1.80;;
68800;SDS011;55784;50.734;7.086;2023-05-07T10:58:30;5.93;;;2.30;;
68800;SDS011;55784;50.734;7.086;2023-05-07T11:03:22;7.90;;;2.33;;
68800;SDS011;55784;50.734;7.086;2023-05-07T11:05:48;6.43;;;2.20;;
68800;SDS011;55784;50.734;7.086;2023-05-07T11:11:18;5.35;;;2.05;;
68800;SDS011;55784;50.734;7.086;2023-05-07T11:13:45;5.55;;;1.98;;
68800;SDS011;55784;50.734;7.086;2023-05-07T11:16:24;5.43;;;1.90;;
68800;SDS011;55784;50.734;7.086;2023-05-07T11:18:52;6.32;;;2.60;;
68800;SDS011;55784;50.734;7.086;2023-05-07T11:21:54;5.97;;;2.00;;
68800;SDS011;55784;50.734;7.086;2023-05-07T11:24:13;6.00;;;2.20;;
68800;SDS011;55784;50.734;7.086;2023-05-07T11:26:48;5.05;;;2.00;;
68800;SDS011;55784;50.734;7.086;2023-05-07T11:29:19;4.20;;;1.63;;
68800;SDS011;55784;50.734;7.086;2023-05-07T11:31:52;6.25;;;2.17;;
68800;SDS011;55784;50.734;7.086;2023-05-07T11:34:22;6.18;;;1.90;;
68800;SDS011;55784;50.734;7.086;2023-05-07T11:36:49;5.20;;;2.00;;
68800;SDS011;55784;50.734;7.086;2023-05-07T11:39:24;5.77;;;1.80;;
68800;SDS011;55784;50.734;7.086;2023-05-07T11:41:50;5.65;;;1.90;;
68800;SDS011;55784;50.734;7.086;2023-05-07T11:44:16;5.23;;;1.80;;
68800;SDS011;55784;50.734;7.086;2023-05-07T11:46:42;5.47;;;1.90;;
68800;SDS011;55784;50.734;7.086;2023-05-07T11:49:09;4.97;;;1.70;;
68800;SDS011;55784;50.734;7.086;2023-05-07T11:51:35;5.37;;;1.73;;
68800;SDS011;55784;50.734;7.086;2023-05-07T11:54:00;5.83;;;1.90;;
68800;SDS011;55784;50.734;7.086;2023-05-07T11:56:29;5.00;;;1.83;;
68800;SDS011;55784;50.734;7.086;2023-05-07T11:59:01;6.88;;;1.80;;
68800;SDS011;55784;50.734;7.086;2023-05-07T12:01:27;4.70;;;1.80;;
68800;SDS011;55784;50.734;7.086;2023-05-07T12:03:52;5.10;;;2.00;;
68800;SDS011;55784;50.734;7.086;2023-05-07T12:06:17;5.67;;;1.90;;
68800;SDS011;55784;50.734;7.086;2023-05-07T12:08:43;4.65;;;1.63;;
68800;SDS011;55784;50.734;7.086;2023-05-07T12:11:12;5.10;;;1.90;;
68800;SDS011;55784;50.734;7.086;2023-05-07T12:13:43;5.17;;;1.80;;
68800;SDS011;55784;50.734;7.086;2023-05-07T12:16:08;5.13;;;1.70;;
68800;SDS011;55784;50.734;7.086;2023-05-07T12:18:35;5.67;;;1.57;;
68800;SDS011;55784;50.734;7.086;2023-05-07T12:21:01;5.45;;;1.70;;
68800;SDS011;55784;50.734;7.086;2023-05-07T12:23:27;5.05;;;1.90;;
68800;SDS011;55784;50.734;7.086;2023-05-07T12:25:53;5.27;;;1.80;;
68800;SDS011;55784;50.734;7.086;2023-05-07T12:28:19;5.90;;;1.73;;
68800;SDS011;55784;50.734;7.086;2023-05-07T12:30:45;7.07;;;2.90;;
68800;SDS011;55784;50.734;7.086;2023-05-07T12:33:12;6.33;;;2.10;;
68800;SDS011;55784;50.734;7.086;2023-05-07T12:35:41;5.80;;;2.30;;
68800;SDS011;55784;50.734;7.086;2023-05-07T12:38:07;6.47;;;2.22;;
68800;SDS011;55784;50.734;7.086;2023-05-07T12:40:38;6.25;;;2.28;;
68800;SDS011;55784;50.734;7.086;2023-05-07T12:43:07;6.93;;;3.72;;
68800;SDS011;55784;50.734;7.086;2023-05-07T12:45:41;7.27;;;2.40;;
68800;SDS011;55784;50.734;7.086;2023-05-07T12:48:06;5.45;;;2.20;;
68800;SDS011;55784;50.734;7.086;2023-05-07T12:50:34;6.43;;;2.08;;
68800;SDS011;55784;50.734;7.086;2023-05-07T12:52:59;7.70;;;2.50;;
68800;SDS011;55784;50.734;7.086;2023-05-07T12:55:25;6.07;;;1.90;;
68800;SDS011;55784;50.734;7.086;2023-05-07T12:57:51;7.47;;;1.90;;
68800;SDS011;55784;50.734;7.086;2023-05-07T13:00:18;5.10;;;1.65;;
68800;SDS011;55784;50.734;7.086;2023-05-07T13:02:58;4.45;;;1.67;;
68800;SDS011;55784;50.734;7.086;2023-05-07T13:05:23;5.60;;;2.00;;
68800;SDS011;55784;50.734;7.086;2023-05-07T13:07:52;7.13;;;2.57;;
68800;SDS011;55784;50.734;7.086;2023-05-07T13:10:18;7.50;;;3.08;;
68800;SDS011;55784;50.734;7.086;2023-05-07T13:12:44;5.87;;;2.37;;
68800;SDS011;55784;50.734;7.086;2023-05-07T13:15:10;5.63;;;2.40;;
68800;SDS011;55784;50.734;7.086;2023-05-07T13:17:35;6.10;;;2.90;;
68800;SDS011;55784;50.734;7.086;2023-05-07T13:20:00;7.33;;;2.57;;
68800;SDS011;55784;50.734;7.086;2023-05-07T13:22:26;5.40;;;2.10;;
68800;SDS011;55784;50.734;7.086;2023-05-07T13:24:51;6.90;;;2.10;;
68800;SDS011;55784;50.734;7.086;2023-05-07T13:27:16;6.00;;;1.90;;
68800;SDS011;55784;50.734;7.086;2023-05-07T13:29:42;6.18;;;2.00;;
68800;SDS011;55784;50.734;7.086;2023-05-07T13:32:08;15.57;;;3.80;;
68800;SDS011;55784;50.734;7.086;2023-05-07T13:34:39;9.97;;;2.57;;
68800;SDS011;55784;50.734;7.086;2023-05-07T13:37:04;7.60;;;2.47;;
68800;SDS011;55784;50.734;7.086;2023-05-07T13:39:29;5.67;;;2.17;;
68800;SDS011;55784;50.734;7.086;2023-05-07T13:41:55;5.33;;;2.10;;
68800;SDS011;55784;50.734;7.086;2023-05-07T13:44:20;5.97;;;2.33;;
68800;SDS011;55784;50.734;7.086;2023-05-07T13:46:46;6.43;;;2.50;;
68800;SDS011;55784;50.734;7.086;2023-05-07T13:49:11;10.27;;;2.80;;
68800;SDS011;55784;50.734;7.086;2023-05-07T13:51:38;5.87;;;2.23;;
68800;SDS011;55784;50.734;7.086;2023-05-07T13:54:04;9.88;;;2.35;;
68800;SDS011;55784;50.734;7.086;2023-05-07T13:56:30;7.30;;;2.20;;
68800;SDS011;55784;50.734;7.086;2023-05-07T13:58:57;6.22;;;2.20;;
68800;SDS011;55784;50.734;7.086;2023-05-07T14:01:22;7.27;;;2.70;;
68800;SDS011;55784;50.734;7.086;2023-05-07T14:03:49;7.05;;;3.08;;
68800;SDS011;55784;50.734;7.086;2023-05-07T14:06:15;6.53;;;2.60;;
68800;SDS011;55784;50.734;7.086;2023-05-07T14:08:40;6.83;;;2.50;;
68800;SDS011;55784;50.734;7.086;2023-05-07T14:11:05;5.57;;;2.50;;
68800;SDS011;55784;50.734;7.086;2023-05-07T14:13:31;6.73;;;2.10;;
68800;SDS011;55784;50.734;7.086;2023-05-07T14:15:57;6.37;;;2.30;;
68800;SDS011;55784;50.734;7.086;2023-05-07T14:18:23;5.53;;;2.20;;
68800;SDS011;55784;50.734;7.086;2023-05-07T14:20:48;5.73;;;2.10;;
68800;SDS011;55784;50.734;7.086;2023-05-07T14:23:14;5.82;;;2.00;;
68800;SDS011;55784;50.734;7.086;2023-05-07T14:25:40;6.03;;;1.90;;
68800;SDS011;55784;50.734;7.086;2023-05-07T14:28:06;5.07;;;1.80;;
68800;SDS011;55784;50.734;7.086;2023-05-07T14:30:31;5.23;;;1.70;;
68800;SDS011;55784;50.734;7.086;2023-05-07T14:32:57;4.97;;;1.70;;
68800;SDS011;55784;50.734;7.086;2023-05-07T14:35:22;4.90;;;1.77;;
68800;SDS011;55784;50.734;7.086;2023-05-07T14:37:47;5.77;;;1.90;;
68800;SDS011;55784;50.734;7.086;2023-05-07T14:40:14;4.80;;;1.73;;
68800;SDS011;55784;50.734;7.086;2023-05-07T14:42:39;7.03;;;1.70;;
68800;SDS011;55784;50.734;7.086;2023-05-07T14:45:05;4.60;;;1.63;;
68800;SDS011;55784;50.734;7.086;2023-05-07T14:47:31;5.30;;;2.10;;
68800;SDS011;55784;50.734;7.086;2023-05-07T14:49:57;6.37;;;1.80;;
68800;SDS011;55784;50.734;7.086;2023-05-07T14:52:23;5.80;;;2.10;;
68800;SDS011;55784;50.734;7.086;2023-05-07T14:54:48;5.93;;;2.00;;